sensor_id;sensor_type;location;lat;lon;timestamp;P1;durP1;ratioP1;P2;durP2;ratioP2
44822;SDS011;51097;51.984;5.650;2023-10-09T00:00:13;32.08;;;16.90;;
44822;SDS011;51097;51.984;5.650;2023-10-09T00:02:59;38.78;;;19.65;;
44822;SDS011;51097;51.984;5.650;2023-10-09T00:05:29;36.58;;;19.88;;
44822;SDS011;51097;51.984;5.650;2023-10-09T00:08:04;31.08;;;19.58;;
44822;SDS011;51097;51.984;5.650;2023-10-09T00:10:29;40.40;;;22.08;;
44822;SDS011;51097;51.984;5.650;2023-10-09T00:13:09;33.72;;;19.33;;
44822;SDS011;51097;51.984;5.650;2023-10-09T00:15:35;33.75;;;19.60;;
44822;SDS011;51097;51.984;5.650;2023-10-09T00:18:01;35.75;;;20.58;;
44822;SDS011;51097;51.984;5.650;2023-10-09T00:20:29;38.58;;;21.70;;
44822;SDS011;51097;51.984;5.650;2023-10-09T00:22:56;35.50;;;20.88;;
44822;SDS011;51097;51.984;5.650;2023-10-09T00:25:23;33.70;;;19.65;;
44822;SDS011;51097;51.984;5.650;2023-10-09T00:27:54;37.75;;;21.13;;
44822;SDS011;51097;51.984;5.650;2023-10-09T00:30:20;35.60;;;20.67;;
44822;SDS011;51097;51.984;5.650;2023-10-09T00:32:54;36.88;;;20.08;;
44822;SDS011;51097;51.984;5.650;2023-10-09T00:35:23;37.67;;;20.67;;
44822;SDS011;51097;51.984;5.650;2023-10-09T00:38:01;37.25;;;22.02;;
44822;SDS011;51097;51.984;5.650;2023-10-09T00:40:38;37.53;;;22.27;;
44822;SDS011;51097;51.984;5.650;2023-10-09T00:43:12;37.45;;;22.90;;
44822;SDS011;51097;51.984;5.650;2023-10-09T00:45:39;36.55;;;22.05;;
44822;SDS011;51097;51.984;5.650;2023-10-09T00:48:09;39.55;;;22.95;;
44822;SDS011;51097;51.984;5.650;2023-10-09T00:50:35;37.35;;;23.20;;
44822;SDS011;51097;51.984;5.650;2023-10-09T00:53:01;35.08;;;21.92;;
44822;SDS011;51097;51.984;5.650;2023-10-09T00:55:31;37.90;;;21.50;;
44822;SDS011;51097;51.984;5.650;2023-10-09T00:58:20;36.55;;;22.63;;
44822;SDS011;51097;51.984;5.650;2023-10-09T01:00:51;40.00;;;25.15;;
44822;SDS011;51097;51.984;5.650;2023-10-09T01:03:18;40.72;;;24.40;;
44822;SDS011;51097;51.984;5.650;2023-10-09T01:05:46;39.45;;;24.02;;
44822;SDS011;51097;51.984;5.650;2023-10-09T01:08:48;40.42;;;24.90;;
44822;SDS011;51097;51.984;5.650;2023-10-09T01:11:31;38.95;;;23.83;;
44822;SDS011;51097;51.984;5.650;2023-10-09T01:13:57;45.22;;;25.35;;
44822;SDS011;51097;51.984;5.650;2023-10-09T01:16:37;42.92;;;24.85;;
44822;SDS011;51097;51.984;5.650;2023-10-09T01:19:06;37.78;;;22.35;;
44822;SDS011;51097;51.984;5.650;2023-10-09T01:21:38;39.83;;;24.17;;
44822;SDS011;51097;51.984;5.650;2023-10-09T01:24:05;45.75;;;26.33;;
44822;SDS011;51097;51.984;5.650;2023-10-09T01:26:40;42.17;;;25.70;;
44822;SDS011;51097;51.984;5.650;2023-10-09T01:29:11;41.35;;;25.65;;
44822;SDS011;51097;51.984;5.650;2023-10-09T01:31:44;45.30;;;25.52;;
44822;SDS011;51097;51.984;5.650;2023-10-09T01:34:19;40.97;;;25.30;;
44822;SDS011;51097;51.984;5.650;2023-10-09T01:37:08;46.30;;;27.05;;
44822;SDS011;51097;51.984;5.650;2023-10-09T01:39:54;48.55;;;27.02;;
44822;SDS011;51097;51.984;5.650;2023-10-09T01:42:23;43.97;;;26.25;;
44822;SDS011;51097;51.984;5.650;2023-10-09T01:44:56;41.65;;;27.08;;
44822;SDS011;51097;51.984;5.650;2023-10-09T01:47:23;40.65;;;26.70;;
44822;SDS011;51097;51.984;5.650;2023-10-09T01:49:50;42.35;;;26.83;;
44822;SDS011;51097;51.984;5.650;2023-10-09T01:52:18;41.13;;;26.42;;
44822;SDS011;51097;51.984;5.650;2023-10-09T01:54:46;46.92;;;27.92;;
44822;SDS011;51097;51.984;5.650;2023-10-09T01:57:19;41.47;;;27.40;;
44822;SDS011;51097;51.984;5.650;2023-10-09T01:59:48;51.97;;;27.65;;
44822;SDS011;51097;51.984;5.650;2023-10-09T02:02:18;48.70;;;28.13;;
44822;SDS011;51097;51.984;5.650;2023-10-09T02:04:50;40.75;;;27.25;;
44822;SDS011;51097;51.984;5.650;2023-10-09T02:07:20;39.22;;;26.63;;
44822;SDS011;51097;51.984;5.650;2023-10-09T02:09:54;47.55;;;28.75;;
44822;SDS011;51097;51.984;5.650;2023-10-09T02:12:20;37.95;;;26.58;;
44822;SDS011;51097;51.984;5.650;2023-10-09T02:14:48;45.13;;;27.13;;
44822;SDS011;51097;51.984;5.650;2023-10-09T02:17:14;41.47;;;26.13;;
44822;SDS011;51097;51.984;5.650;2023-10-09T02:19:44;43.15;;;28.25;;
44822;SDS011;51097;51.984;5.650;2023-10-09T02:22:14;42.30;;;26.83;;
44822;SDS011;51097;51.984;5.650;2023-10-09T02:24:41;39.35;;;27.13;;
44822;SDS011;51097;51.984;5.650;2023-10-09T02:27:16;46.28;;;28.55;;
44822;SDS011;51097;51.984;5.650;2023-10-09T02:29:51;41.25;;;26.58;;
44822;SDS011;51097;51.984;5.650;2023-10-09T02:32:18;44.53;;;28.65;;
44822;SDS011;51097;51.984;5.650;2023-10-09T02:34:51;41.63;;;26.25;;
44822;SDS011;51097;51.984;5.650;2023-10-09T02:37:19;48.63;;;28.33;;
44822;SDS011;51097;51.984;5.650;2023-10-09T02:39:48;44.90;;;26.90;;
44822;SDS011;51097;51.984;5.650;2023-10-09T02:42:17;41.63;;;26.73;;
44822;SDS011;51097;51.984;5.650;2023-10-09T02:44:48;41.40;;;27.50;;
44822;SDS011;51097;51.984;5.650;2023-10-09T02:47:16;41.30;;;27.08;;
44822;SDS011;51097;51.984;5.650;2023-10-09T02:49:46;42.67;;;27.92;;
44822;SDS011;51097;51.984;5.650;2023-10-09T02:52:13;37.65;;;26.20;;
44822;SDS011;51097;51.984;5.650;2023-10-09T02:54:43;37.42;;;24.83;;
44822;SDS011;51097;51.984;5.650;2023-10-09T02:57:12;34.88;;;24.92;;
44822;SDS011;51097;51.984;5.650;2023-10-09T02:59:47;40.95;;;26.67;;
44822;SDS011;51097;51.984;5.650;2023-10-09T03:02:16;40.30;;;25.27;;
44822;SDS011;51097;51.984;5.650;2023-10-09T03:04:42;41.22;;;27.23;;
44822;SDS011;51097;51.984;5.650;2023-10-09T03:07:08;50.97;;;28.15;;
44822;SDS011;51097;51.984;5.650;2023-10-09T03:09:38;38.53;;;26.25;;
44822;SDS011;51097;51.984;5.650;2023-10-09T03:12:05;38.42;;;25.67;;
44822;SDS011;51097;51.984;5.650;2023-10-09T03:14:35;39.58;;;26.40;;
44822;SDS011;51097;51.984;5.650;2023-10-09T03:17:03;31.27;;;23.75;;
44822;SDS011;51097;51.984;5.650;2023-10-09T03:19:29;34.92;;;24.15;;
44822;SDS011;51097;51.984;5.650;2023-10-09T03:22:02;35.13;;;25.95;;
44822;SDS011;51097;51.984;5.650;2023-10-09T03:24:35;35.97;;;25.60;;
44822;SDS011;51097;51.984;5.650;2023-10-09T03:27:09;40.03;;;25.33;;
44822;SDS011;51097;51.984;5.650;2023-10-09T03:29:36;43.47;;;27.33;;
44822;SDS011;51097;51.984;5.650;2023-10-09T03:32:02;39.72;;;25.90;;
44822;SDS011;51097;51.984;5.650;2023-10-09T03:34:28;41.13;;;25.38;;
44822;SDS011;51097;51.984;5.650;2023-10-09T03:36:56;32.08;;;22.90;;
44822;SDS011;51097;51.984;5.650;2023-10-09T03:39:32;35.05;;;24.50;;
44822;SDS011;51097;51.984;5.650;2023-10-09T03:42:06;30.75;;;22.23;;
44822;SDS011;51097;51.984;5.650;2023-10-09T03:44:36;39.38;;;23.00;;
44822;SDS011;51097;51.984;5.650;2023-10-09T03:47:06;34.75;;;24.92;;
44822;SDS011;51097;51.984;5.650;2023-10-09T03:49:35;37.20;;;24.75;;
44822;SDS011;51097;51.984;5.650;2023-10-09T03:52:04;33.13;;;22.30;;
44822;SDS011;51097;51.984;5.650;2023-10-09T03:54:31;35.35;;;22.95;;
44822;SDS011;51097;51.984;5.650;2023-10-09T03:57:00;32.20;;;22.73;;
44822;SDS011;51097;51.984;5.650;2023-10-09T03:59:25;30.70;;;22.95;;
44822;SDS011;51097;51.984;5.650;2023-10-09T04:01:55;32.05;;;22.52;;
44822;SDS011;51097;51.984;5.650;2023-10-09T04:04:22;31.02;;;21.60;;
44822;SDS011;51097;51.984;5.650;2023-10-09T04:06:48;32.63;;;21.77;;
44822;SDS011;51097;51.984;5.650;2023-10-09T04:09:16;35.08;;;22.00;;
44822;SDS011;51097;51.984;5.650;2023-10-09T04:11:45;32.38;;;22.08;;
44822;SDS011;51097;51.984;5.650;2023-10-09T04:14:11;39.63;;;22.70;;
44822;SDS011;51097;51.984;5.650;2023-10-09T04:16:47;34.70;;;22.83;;
44822;SDS011;51097;51.984;5.650;2023-10-09T04:19:31;32.38;;;21.23;;
44822;SDS011;51097;51.984;5.650;2023-10-09T04:22:04;30.10;;;22.35;;
44822;SDS011;51097;51.984;5.650;2023-10-09T04:24:33;30.77;;;20.90;;
44822;SDS011;51097;51.984;5.650;2023-10-09T04:27:16;29.48;;;20.33;;
44822;SDS011;51097;51.984;5.650;2023-10-09T04:29:42;29.70;;;20.30;;
44822;SDS011;51097;51.984;5.650;2023-10-09T04:32:12;28.33;;;21.60;;
44822;SDS011;51097;51.984;5.650;2023-10-09T04:34:41;30.27;;;21.25;;
44822;SDS011;51097;51.984;5.650;2023-10-09T04:37:13;28.13;;;21.65;;
44822;SDS011;51097;51.984;5.650;2023-10-09T04:39:40;34.67;;;22.52;;
44822;SDS011;51097;51.984;5.650;2023-10-09T04:42:13;35.50;;;23.65;;
44822;SDS011;51097;51.984;5.650;2023-10-09T04:45:01;32.28;;;22.15;;
44822;SDS011;51097;51.984;5.650;2023-10-09T04:47:31;25.60;;;21.50;;
44822;SDS011;51097;51.984;5.650;2023-10-09T04:50:05;31.73;;;22.45;;
44822;SDS011;51097;51.984;5.650;2023-10-09T04:53:01;31.50;;;21.15;;
44822;SDS011;51097;51.984;5.650;2023-10-09T04:55:42;32.85;;;23.27;;
44822;SDS011;51097;51.984;5.650;2023-10-09T04:58:20;32.42;;;23.13;;
44822;SDS011;51097;51.984;5.650;2023-10-09T05:00:50;28.42;;;21.42;;
44822;SDS011;51097;51.984;5.650;2023-10-09T05:03:22;32.88;;;23.58;;
44822;SDS011;51097;51.984;5.650;2023-10-09T05:06:14;37.20;;;22.58;;
44822;SDS011;51097;51.984;5.650;2023-10-09T05:08:46;28.98;;;21.35;;
44822;SDS011;51097;51.984;5.650;2023-10-09T05:11:13;32.28;;;22.60;;
44822;SDS011;51097;51.984;5.650;2023-10-09T05:14:00;32.95;;;22.88;;
44822;SDS011;51097;51.984;5.650;2023-10-09T05:16:38;30.48;;;21.65;;
44822;SDS011;51097;51.984;5.650;2023-10-09T05:19:23;33.10;;;23.55;;
44822;SDS011;51097;51.984;5.650;2023-10-09T05:21:55;28.13;;;21.48;;
44822;SDS011;51097;51.984;5.650;2023-10-09T05:24:23;30.80;;;22.23;;
44822;SDS011;51097;51.984;5.650;2023-10-09T05:26:51;29.00;;;21.52;;
44822;SDS011;51097;51.984;5.650;2023-10-09T05:29:21;33.72;;;22.55;;
44822;SDS011;51097;51.984;5.650;2023-10-09T05:31:59;28.80;;;20.38;;
44822;SDS011;51097;51.984;5.650;2023-10-09T05:34:39;27.52;;;20.70;;
44822;SDS011;51097;51.984;5.650;2023-10-09T05:37:28;29.48;;;22.88;;
44822;SDS011;51097;51.984;5.650;2023-10-09T05:40:02;31.75;;;21.40;;
44822;SDS011;51097;51.984;5.650;2023-10-09T05:42:51;31.23;;;21.85;;
44822;SDS011;51097;51.984;5.650;2023-10-09T05:45:24;29.13;;;21.27;;
44822;SDS011;51097;51.984;5.650;2023-10-09T05:48:08;27.85;;;20.35;;
44822;SDS011;51097;51.984;5.650;2023-10-09T05:50:40;35.30;;;23.45;;
44822;SDS011;51097;51.984;5.650;2023-10-09T05:53:28;29.02;;;20.52;;
44822;SDS011;51097;51.984;5.650;2023-10-09T05:56:09;26.38;;;19.45;;
44822;SDS011;51097;51.984;5.650;2023-10-09T05:58:54;31.05;;;21.45;;
44822;SDS011;51097;51.984;5.650;2023-10-09T06:01:28;28.92;;;21.02;;
44822;SDS011;51097;51.984;5.650;2023-10-09T06:04:12;28.13;;;20.38;;
44822;SDS011;51097;51.984;5.650;2023-10-09T06:06:42;29.42;;;20.95;;
44822;SDS011;51097;51.984;5.650;2023-10-09T06:09:09;27.95;;;18.80;;
44822;SDS011;51097;51.984;5.650;2023-10-09T06:11:42;24.70;;;19.37;;
44822;SDS011;51097;51.984;5.650;2023-10-09T06:14:13;27.55;;;19.23;;
44822;SDS011;51097;51.984;5.650;2023-10-09T06:16:50;30.00;;;21.17;;
44822;SDS011;51097;51.984;5.650;2023-10-09T06:19:23;30.35;;;19.42;;
44822;SDS011;51097;51.984;5.650;2023-10-09T06:21:57;28.73;;;20.73;;
44822;SDS011;51097;51.984;5.650;2023-10-09T06:24:42;29.50;;;19.90;;
44822;SDS011;51097;51.984;5.650;2023-10-09T06:27:19;25.95;;;18.95;;
44822;SDS011;51097;51.984;5.650;2023-10-09T06:30:09;33.70;;;19.58;;
44822;SDS011;51097;51.984;5.650;2023-10-09T06:32:44;30.70;;;19.42;;
44822;SDS011;51097;51.984;5.650;2023-10-09T06:35:16;26.88;;;19.80;;
44822;SDS011;51097;51.984;5.650;2023-10-09T06:37:49;25.90;;;19.42;;
44822;SDS011;51097;51.984;5.650;2023-10-09T06:43:04;26.67;;;18.27;;
44822;SDS011;51097;51.984;5.650;2023-10-09T06:45:37;27.98;;;19.33;;
44822;SDS011;51097;51.984;5.650;2023-10-09T06:48:09;25.00;;;18.17;;
44822;SDS011;51097;51.984;5.650;2023-10-09T06:50:55;28.17;;;18.23;;
44822;SDS011;51097;51.984;5.650;2023-10-09T06:53:49;27.80;;;19.13;;
44822;SDS011;51097;51.984;5.650;2023-10-09T06:56:21;30.35;;;20.08;;
44822;SDS011;51097;51.984;5.650;2023-10-09T06:58:50;29.40;;;19.98;;
44822;SDS011;51097;51.984;5.650;2023-10-09T07:03:56;26.67;;;19.27;;
44822;SDS011;51097;51.984;5.650;2023-10-09T07:06:35;30.23;;;18.88;;
44822;SDS011;51097;51.984;5.650;2023-10-09T07:09:01;30.08;;;18.90;;
44822;SDS011;51097;51.984;5.650;2023-10-09T07:14:08;28.85;;;19.00;;
44822;SDS011;51097;51.984;5.650;2023-10-09T07:16:53;26.75;;;19.45;;
44822;SDS011;51097;51.984;5.650;2023-10-09T07:19:40;27.67;;;19.48;;
44822;SDS011;51097;51.984;5.650;2023-10-09T07:22:07;27.77;;;19.30;;
44822;SDS011;51097;51.984;5.650;2023-10-09T07:24:49;27.60;;;17.90;;
44822;SDS011;51097;51.984;5.650;2023-10-09T07:27:31;26.25;;;18.35;;
44822;SDS011;51097;51.984;5.650;2023-10-09T07:30:13;27.52;;;18.15;;
44822;SDS011;51097;51.984;5.650;2023-10-09T07:35:43;27.90;;;18.15;;
44822;SDS011;51097;51.984;5.650;2023-10-09T07:40:45;24.98;;;18.50;;
44822;SDS011;51097;51.984;5.650;2023-10-09T07:43:24;27.20;;;17.20;;
44822;SDS011;51097;51.984;5.650;2023-10-09T07:45:53;25.88;;;16.65;;
44822;SDS011;51097;51.984;5.650;2023-10-09T07:48:40;25.67;;;18.10;;
44822;SDS011;51097;51.984;5.650;2023-10-09T07:51:16;27.35;;;17.05;;
44822;SDS011;51097;51.984;5.650;2023-10-09T07:53:45;27.48;;;17.15;;
44822;SDS011;51097;51.984;5.650;2023-10-09T07:56:10;30.88;;;18.25;;
44822;SDS011;51097;51.984;5.650;2023-10-09T07:58:39;24.27;;;17.30;;
44822;SDS011;51097;51.984;5.650;2023-10-09T08:01:11;24.15;;;17.42;;
44822;SDS011;51097;51.984;5.650;2023-10-09T08:03:47;26.13;;;17.52;;
44822;SDS011;51097;51.984;5.650;2023-10-09T08:06:22;28.30;;;18.80;;
44822;SDS011;51097;51.984;5.650;2023-10-09T08:09:14;27.35;;;19.05;;
44822;SDS011;51097;51.984;5.650;2023-10-09T08:11:44;31.60;;;20.23;;
44822;SDS011;51097;51.984;5.650;2023-10-09T08:14:11;24.27;;;18.65;;
44822;SDS011;51097;51.984;5.650;2023-10-09T08:16:55;30.80;;;19.35;;
44822;SDS011;51097;51.984;5.650;2023-10-09T08:19:40;26.38;;;21.75;;
44822;SDS011;51097;51.984;5.650;2023-10-09T08:22:36;22.98;;;18.13;;
44822;SDS011;51097;51.984;5.650;2023-10-09T08:25:08;27.42;;;18.92;;
44822;SDS011;51097;51.984;5.650;2023-10-09T08:27:51;27.77;;;18.98;;
44822;SDS011;51097;51.984;5.650;2023-10-09T08:30:22;25.55;;;17.08;;
44822;SDS011;51097;51.984;5.650;2023-10-09T08:32:51;22.10;;;17.85;;
44822;SDS011;51097;51.984;5.650;2023-10-09T08:35:30;22.58;;;16.15;;
44822;SDS011;51097;51.984;5.650;2023-10-09T08:38:00;25.42;;;16.83;;
44822;SDS011;51097;51.984;5.650;2023-10-09T08:40:39;25.17;;;16.30;;
44822;SDS011;51097;51.984;5.650;2023-10-09T08:43:08;29.27;;;16.20;;
44822;SDS011;51097;51.984;5.650;2023-10-09T08:45:38;23.05;;;14.85;;
44822;SDS011;51097;51.984;5.650;2023-10-09T08:48:05;25.67;;;15.90;;
44822;SDS011;51097;51.984;5.650;2023-10-09T08:50:32;26.15;;;16.15;;
44822;SDS011;51097;51.984;5.650;2023-10-09T08:52:59;25.60;;;16.05;;
44822;SDS011;51097;51.984;5.650;2023-10-09T08:55:26;19.90;;;14.02;;
44822;SDS011;51097;51.984;5.650;2023-10-09T08:57:52;18.83;;;13.43;;
44822;SDS011;51097;51.984;5.650;2023-10-09T09:00:18;20.63;;;14.60;;
44822;SDS011;51097;51.984;5.650;2023-10-09T09:02:49;19.50;;;13.82;;
44822;SDS011;51097;51.984;5.650;2023-10-09T09:05:18;19.25;;;12.93;;
44822;SDS011;51097;51.984;5.650;2023-10-09T09:07:48;24.30;;;13.43;;
44822;SDS011;51097;51.984;5.650;2023-10-09T09:10:14;16.50;;;12.80;;
44822;SDS011;51097;51.984;5.650;2023-10-09T09:12:46;20.80;;;12.35;;
44822;SDS011;51097;51.984;5.650;2023-10-09T09:15:18;21.40;;;13.57;;
44822;SDS011;51097;51.984;5.650;2023-10-09T09:17:46;20.00;;;13.85;;
44822;SDS011;51097;51.984;5.650;2023-10-09T09:20:22;21.67;;;13.90;;
44822;SDS011;51097;51.984;5.650;2023-10-09T09:22:55;16.95;;;13.30;;
44822;SDS011;51097;51.984;5.650;2023-10-09T09:25:21;14.82;;;13.05;;
44822;SDS011;51097;51.984;5.650;2023-10-09T09:27:49;22.17;;;14.85;;
44822;SDS011;51097;51.984;5.650;2023-10-09T09:32:49;23.15;;;13.07;;
44822;SDS011;51097;51.984;5.650;2023-10-09T09:35:34;20.05;;;12.90;;
44822;SDS011;51097;51.984;5.650;2023-10-09T09:38:00;15.38;;;11.10;;
44822;SDS011;51097;51.984;5.650;2023-10-09T09:40:31;16.33;;;11.85;;
44822;SDS011;51097;51.984;5.650;2023-10-09T09:43:06;22.27;;;12.18;;
44822;SDS011;51097;51.984;5.650;2023-10-09T09:45:46;17.75;;;11.35;;
44822;SDS011;51097;51.984;5.650;2023-10-09T09:48:14;18.25;;;10.68;;
44822;SDS011;51097;51.984;5.650;2023-10-09T09:50:42;18.48;;;9.75;;
44822;SDS011;51097;51.984;5.650;2023-10-09T09:55:51;16.25;;;9.50;;
44822;SDS011;51097;51.984;5.650;2023-10-09T09:58:24;15.13;;;10.25;;
44822;SDS011;51097;51.984;5.650;2023-10-09T10:01:01;14.15;;;9.98;;
44822;SDS011;51097;51.984;5.650;2023-10-09T10:03:41;16.42;;;10.02;;
44822;SDS011;51097;51.984;5.650;2023-10-09T10:06:11;13.77;;;9.85;;
44822;SDS011;51097;51.984;5.650;2023-10-09T10:08:37;15.38;;;9.50;;
44822;SDS011;51097;51.984;5.650;2023-10-09T10:11:06;15.45;;;10.07;;
44822;SDS011;51097;51.984;5.650;2023-10-09T10:16:10;15.93;;;10.65;;
44822;SDS011;51097;51.984;5.650;2023-10-09T10:18:57;15.95;;;9.75;;
44822;SDS011;51097;51.984;5.650;2023-10-09T10:21:36;20.08;;;9.95;;
44822;SDS011;51097;51.984;5.650;2023-10-09T10:27:14;18.88;;;9.40;;
44822;SDS011;51097;51.984;5.650;2023-10-09T10:35:16;16.77;;;9.38;;
44822;SDS011;51097;51.984;5.650;2023-10-09T10:37:45;14.07;;;8.85;;
44822;SDS011;51097;51.984;5.650;2023-10-09T10:40:26;15.65;;;9.63;;
44822;SDS011;51097;51.984;5.650;2023-10-09T10:43:20;16.80;;;9.23;;
44822;SDS011;51097;51.984;5.650;2023-10-09T10:46:05;17.52;;;8.90;;
44822;SDS011;51097;51.984;5.650;2023-10-09T10:48:51;13.75;;;8.65;;
44822;SDS011;51097;51.984;5.650;2023-10-09T10:51:36;16.23;;;8.20;;
44822;SDS011;51097;51.984;5.650;2023-10-09T10:54:08;15.95;;;9.57;;
44822;SDS011;51097;51.984;5.650;2023-10-09T10:56:52;18.13;;;9.13;;
44822;SDS011;51097;51.984;5.650;2023-10-09T10:59:22;12.27;;;8.00;;
44822;SDS011;51097;51.984;5.650;2023-10-09T11:01:49;11.55;;;8.00;;
44822;SDS011;51097;51.984;5.650;2023-10-09T11:04:19;18.38;;;8.65;;
44822;SDS011;51097;51.984;5.650;2023-10-09T11:06:59;15.30;;;8.70;;
44822;SDS011;51097;51.984;5.650;2023-10-09T11:09:42;18.15;;;7.97;;
44822;SDS011;51097;51.984;5.650;2023-10-09T11:12:26;12.05;;;7.68;;
44822;SDS011;51097;51.984;5.650;2023-10-09T11:17:57;12.73;;;7.20;;
44822;SDS011;51097;51.984;5.650;2023-10-09T11:20:36;14.73;;;7.88;;
44822;SDS011;51097;51.984;5.650;2023-10-09T11:23:18;13.43;;;6.95;;
44822;SDS011;51097;51.984;5.650;2023-10-09T11:25:54;11.75;;;7.22;;
44822;SDS011;51097;51.984;5.650;2023-10-09T11:28:32;12.00;;;7.72;;
44822;SDS011;51097;51.984;5.650;2023-10-09T11:31:36;12.80;;;6.95;;
44822;SDS011;51097;51.984;5.650;2023-10-09T11:34:03;14.02;;;7.68;;
44822;SDS011;51097;51.984;5.650;2023-10-09T11:36:33;14.85;;;6.90;;
44822;SDS011;51097;51.984;5.650;2023-10-09T11:39:00;13.23;;;7.03;;
44822;SDS011;51097;51.984;5.650;2023-10-09T11:41:47;10.88;;;6.80;;
44822;SDS011;51097;51.984;5.650;2023-10-09T11:44:15;15.73;;;8.57;;
44822;SDS011;51097;51.984;5.650;2023-10-09T11:47:02;12.00;;;6.65;;
44822;SDS011;51097;51.984;5.650;2023-10-09T11:49:52;19.20;;;9.27;;
44822;SDS011;51097;51.984;5.650;2023-10-09T11:52:57;11.93;;;6.00;;
44822;SDS011;51097;51.984;5.650;2023-10-09T11:55:42;13.68;;;6.70;;
44822;SDS011;51097;51.984;5.650;2023-10-09T11:58:13;12.15;;;6.32;;
44822;SDS011;51097;51.984;5.650;2023-10-09T12:00:39;12.20;;;6.18;;
44822;SDS011;51097;51.984;5.650;2023-10-09T12:03:10;9.60;;;6.47;;
44822;SDS011;51097;51.984;5.650;2023-10-09T12:05:39;13.43;;;6.82;;
44822;SDS011;51097;51.984;5.650;2023-10-09T12:08:09;22.27;;;7.82;;
44822;SDS011;51097;51.984;5.650;2023-10-09T12:10:40;20.02;;;9.10;;
44822;SDS011;51097;51.984;5.650;2023-10-09T12:13:06;18.92;;;7.55;;
44822;SDS011;51097;51.984;5.650;2023-10-09T12:15:32;12.77;;;6.32;;
44822;SDS011;51097;51.984;5.650;2023-10-09T12:18:05;13.77;;;7.53;;
44822;SDS011;51097;51.984;5.650;2023-10-09T12:20:34;16.15;;;8.05;;
44822;SDS011;51097;51.984;5.650;2023-10-09T12:23:01;16.02;;;7.32;;
44822;SDS011;51097;51.984;5.650;2023-10-09T12:25:31;15.00;;;7.28;;
44822;SDS011;51097;51.984;5.650;2023-10-09T12:27:59;15.02;;;6.28;;
44822;SDS011;51097;51.984;5.650;2023-10-09T12:30:27;11.13;;;5.93;;
44822;SDS011;51097;51.984;5.650;2023-10-09T12:32:56;9.55;;;5.78;;
44822;SDS011;51097;51.984;5.650;2023-10-09T12:35:25;11.60;;;6.07;;
44822;SDS011;51097;51.984;5.650;2023-10-09T12:37:52;11.65;;;7.30;;
44822;SDS011;51097;51.984;5.650;2023-10-09T12:40:19;9.02;;;5.43;;
44822;SDS011;51097;51.984;5.650;2023-10-09T12:42:54;10.27;;;5.82;;
44822;SDS011;51097;51.984;5.650;2023-10-09T12:45:21;18.27;;;8.02;;
44822;SDS011;51097;51.984;5.650;2023-10-09T12:47:57;14.55;;;7.38;;
44822;SDS011;51097;51.984;5.650;2023-10-09T12:50:27;40.53;;;13.98;;
44822;SDS011;51097;51.984;5.650;2023-10-09T12:55:27;13.02;;;7.40;;
44822;SDS011;51097;51.984;5.650;2023-10-09T13:00:25;13.55;;;7.43;;
44822;SDS011;51097;51.984;5.650;2023-10-09T13:02:51;13.50;;;6.45;;
44822;SDS011;51097;51.984;5.650;2023-10-09T13:05:17;10.13;;;6.78;;
44822;SDS011;51097;51.984;5.650;2023-10-09T13:07:52;14.60;;;6.15;;
44822;SDS011;51097;51.984;5.650;2023-10-09T13:10:19;14.07;;;6.45;;
44822;SDS011;51097;51.984;5.650;2023-10-09T13:12:45;13.75;;;6.55;;
44822;SDS011;51097;51.984;5.650;2023-10-09T13:15:11;9.30;;;5.38;;
44822;SDS011;51097;51.984;5.650;2023-10-09T13:17:37;10.75;;;7.28;;
44822;SDS011;51097;51.984;5.650;2023-10-09T13:20:04;12.43;;;6.05;;
44822;SDS011;51097;51.984;5.650;2023-10-09T13:22:39;11.50;;;6.00;;
44822;SDS011;51097;51.984;5.650;2023-10-09T13:25:06;11.55;;;6.45;;
44822;SDS011;51097;51.984;5.650;2023-10-09T13:27:40;14.60;;;6.85;;
44822;SDS011;51097;51.984;5.650;2023-10-09T13:30:06;10.60;;;5.95;;
44822;SDS011;51097;51.984;5.650;2023-10-09T13:32:34;11.70;;;6.13;;
44822;SDS011;51097;51.984;5.650;2023-10-09T13:35:04;12.98;;;6.00;;
44822;SDS011;51097;51.984;5.650;2023-10-09T13:37:31;10.80;;;5.80;;
44822;SDS011;51097;51.984;5.650;2023-10-09T13:40:03;10.77;;;5.22;;
44822;SDS011;51097;51.984;5.650;2023-10-09T13:42:36;11.63;;;5.82;;
44822;SDS011;51097;51.984;5.650;2023-10-09T13:45:02;14.45;;;6.65;;
44822;SDS011;51097;51.984;5.650;2023-10-09T13:47:40;10.30;;;6.10;;
44822;SDS011;51097;51.984;5.650;2023-10-09T13:50:10;9.15;;;5.78;;
44822;SDS011;51097;51.984;5.650;2023-10-09T13:52:36;9.95;;;5.95;;
44822;SDS011;51097;51.984;5.650;2023-10-09T13:55:04;9.27;;;5.88;;
44822;SDS011;51097;51.984;5.650;2023-10-09T13:57:42;10.05;;;6.10;;
44822;SDS011;51097;51.984;5.650;2023-10-09T14:00:11;13.70;;;6.93;;
44822;SDS011;51097;51.984;5.650;2023-10-09T14:02:42;10.73;;;5.88;;
44822;SDS011;51097;51.984;5.650;2023-10-09T14:05:08;9.63;;;5.65;;
44822;SDS011;51097;51.984;5.650;2023-10-09T14:07:34;11.90;;;6.47;;
44822;SDS011;51097;51.984;5.650;2023-10-09T14:10:00;11.13;;;5.63;;
44822;SDS011;51097;51.984;5.650;2023-10-09T14:12:42;10.23;;;5.65;;
44822;SDS011;51097;51.984;5.650;2023-10-09T14:15:08;15.38;;;6.30;;
44822;SDS011;51097;51.984;5.650;2023-10-09T14:17:42;10.48;;;6.28;;
44822;SDS011;51097;51.984;5.650;2023-10-09T14:20:07;9.18;;;5.85;;
44822;SDS011;51097;51.984;5.650;2023-10-09T14:22:55;11.77;;;6.00;;
44822;SDS011;51097;51.984;5.650;2023-10-09T14:25:21;10.10;;;5.90;;
44822;SDS011;51097;51.984;5.650;2023-10-09T14:27:46;10.32;;;6.50;;
44822;SDS011;51097;51.984;5.650;2023-10-09T14:30:18;13.20;;;7.13;;
44822;SDS011;51097;51.984;5.650;2023-10-09T14:32:57;17.35;;;6.55;;
44822;SDS011;51097;51.984;5.650;2023-10-09T14:35:26;11.15;;;6.68;;
44822;SDS011;51097;51.984;5.650;2023-10-09T14:37:55;10.82;;;6.57;;
44822;SDS011;51097;51.984;5.650;2023-10-09T14:40:21;13.77;;;7.38;;
44822;SDS011;51097;51.984;5.650;2023-10-09T14:42:54;12.80;;;6.75;;
44822;SDS011;51097;51.984;5.650;2023-10-09T14:45:26;8.88;;;5.20;;
44822;SDS011;51097;51.984;5.650;2023-10-09T14:47:53;15.75;;;7.00;;
44822;SDS011;51097;51.984;5.650;2023-10-09T14:50:22;9.25;;;5.13;;
44822;SDS011;51097;51.984;5.650;2023-10-09T14:52:48;11.80;;;5.35;;
44822;SDS011;51097;51.984;5.650;2023-10-09T14:55:15;12.52;;;6.13;;
44822;SDS011;51097;51.984;5.650;2023-10-09T14:57:46;12.60;;;5.70;;
44822;SDS011;51097;51.984;5.650;2023-10-09T15:00:17;11.77;;;5.85;;
44822;SDS011;51097;51.984;5.650;2023-10-09T15:02:48;10.43;;;6.38;;
44822;SDS011;51097;51.984;5.650;2023-10-09T15:05:15;13.35;;;6.25;;
44822;SDS011;51097;51.984;5.650;2023-10-09T15:07:41;13.90;;;5.50;;
44822;SDS011;51097;51.984;5.650;2023-10-09T15:10:07;16.25;;;6.40;;
44822;SDS011;51097;51.984;5.650;2023-10-09T15:12:34;12.40;;;6.43;;
44822;SDS011;51097;51.984;5.650;2023-10-09T15:15:07;12.05;;;6.30;;
44822;SDS011;51097;51.984;5.650;2023-10-09T15:17:39;9.13;;;6.40;;
44822;SDS011;51097;51.984;5.650;2023-10-09T15:20:12;9.10;;;5.70;;
44822;SDS011;51097;51.984;5.650;2023-10-09T15:22:42;10.98;;;5.55;;
44822;SDS011;51097;51.984;5.650;2023-10-09T15:25:08;9.60;;;6.70;;
44822;SDS011;51097;51.984;5.650;2023-10-09T15:27:39;11.27;;;6.10;;
44822;SDS011;51097;51.984;5.650;2023-10-09T15:30:05;9.27;;;6.05;;
44822;SDS011;51097;51.984;5.650;2023-10-09T15:32:33;14.70;;;6.05;;
44822;SDS011;51097;51.984;5.650;2023-10-09T15:35:00;10.05;;;5.40;;